Terminal Aerodrome Forecast
Issued by NWS

Home | Current Version | Previous Version | Text Only | Print | Product List | Glossary On
Versions: 1 2 3 4 5 6 7 8 9 10 11 12 13 14 15 16 17 18 19 20 21 22 23 24 25 26 27 28 29 30 31 32 33 34
780
FTUS41 KPHI 261513 AAC
TAFMIV
TAF AMD
KMIV 261513Z 2615/2712 15008KT P6SM SCT025 BKN100
      TEMPO 2615/2617 4SM TSRA BR OVC015CB
     FM261700 18010G20KT P6SM VCSH BKN040
     FM262100 22012G22KT 4SM TSRA BR OVC025CB
     FM262300 28010G18KT P6SM BKN035=

USA.gov is the U.S. government's official web portal to all federal, state and local government web resources and services.